sensor_id;sensor_type;location;lat;lon;timestamp;pressure;altitude;pressure_sealevel;temperature;humidity
37694;BME280;23531;50.122;8.644;2023-04-24T00:00:50;99344.38;;;13.58;nan
37694;BME280;23531;50.122;8.644;2023-04-24T00:02:53;99346.97;;;13.48;nan
37694;BME280;23531;50.122;8.644;2023-04-24T00:04:56;99344.63;;;13.56;nan
37694;BME280;23531;50.122;8.644;2023-04-24T00:07:02;99339.53;;;13.60;nan
37694;BME280;23531;50.122;8.644;2023-04-24T00:09:04;99337.03;;;13.53;nan
37694;BME280;23531;50.122;8.644;2023-04-24T00:11:05;99330.56;;;13.54;nan
37694;BME280;23531;50.122;8.644;2023-04-24T00:13:06;99335.09;;;13.49;nan
37694;BME280;23531;50.122;8.644;2023-04-24T00:15:08;99334.94;;;13.33;nan
37694;BME280;23531;50.122;8.644;2023-04-24T00:17:09;99331.47;;;13.38;nan
37694;BME280;23531;50.122;8.644;2023-04-24T00:19:12;99343.91;;;13.39;nan
37694;BME280;23531;50.122;8.644;2023-04-24T00:21:13;99341.66;;;13.58;nan
37694;BME280;23531;50.122;8.644;2023-04-24T00:23:16;99323.03;;;13.29;nan
37694;BME280;23531;50.122;8.644;2023-04-24T00:25:17;99328.63;;;13.23;nan
37694;BME280;23531;50.122;8.644;2023-04-24T00:27:18;99329.28;;;13.35;nan
37694;BME280;23531;50.122;8.644;2023-04-24T00:29:19;99329.16;;;13.20;nan
37694;BME280;23531;50.122;8.644;2023-04-24T00:31:21;99324.69;;;13.35;nan
37694;BME280;23531;50.122;8.644;2023-04-24T00:33:22;99323.06;;;13.34;nan
37694;BME280;23531;50.122;8.644;2023-04-24T00:35:25;99319.31;;;13.35;nan
37694;BME280;23531;50.122;8.644;2023-04-24T00:37:26;99330.06;;;13.30;nan
37694;BME280;23531;50.122;8.644;2023-04-24T00:39:27;99318.44;;;13.30;nan
37694;BME280;23531;50.122;8.644;2023-04-24T00:41:28;99317.22;;;13.42;nan
37694;BME280;23531;50.122;8.644;2023-04-24T00:43:30;99323.44;;;13.43;nan
37694;BME280;23531;50.122;8.644;2023-04-24T00:45:31;99327.97;;;13.37;nan
37694;BME280;23531;50.122;8.644;2023-04-24T00:47:32;99317.63;;;13.29;nan
37694;BME280;23531;50.122;8.644;2023-04-24T00:49:34;99319.88;;;13.37;nan
37694;BME280;23531;50.122;8.644;2023-04-24T00:51:36;99318.06;;;13.21;nan
37694;BME280;23531;50.122;8.644;2023-04-24T00:53:37;99315.13;;;13.23;nan
37694;BME280;23531;50.122;8.644;2023-04-24T00:55:39;99308.53;;;13.14;nan
37694;BME280;23531;50.122;8.644;2023-04-24T00:57:41;99309.00;;;13.32;nan
37694;BME280;23531;50.122;8.644;2023-04-24T00:59:42;99304.72;;;13.36;nan
37694;BME280;23531;50.122;8.644;2023-04-24T01:01:44;99303.16;;;13.40;nan
37694;BME280;23531;50.122;8.644;2023-04-24T01:03:45;99298.41;;;13.26;nan
37694;BME280;23531;50.122;8.644;2023-04-24T01:05:47;99291.13;;;13.26;nan
37694;BME280;23531;50.122;8.644;2023-04-24T01:07:50;99294.66;;;13.27;nan
37694;BME280;23531;50.122;8.644;2023-04-24T01:09:51;99286.88;;;13.08;nan
37694;BME280;23531;50.122;8.644;2023-04-24T01:11:52;99295.47;;;13.27;nan
37694;BME280;23531;50.122;8.644;2023-04-24T01:13:54;99298.94;;;13.50;nan
37694;BME280;23531;50.122;8.644;2023-04-24T01:15:55;99298.28;;;13.37;nan
37694;BME280;23531;50.122;8.644;2023-04-24T01:17:56;99289.84;;;13.34;nan
37694;BME280;23531;50.122;8.644;2023-04-24T01:19:58;99286.00;;;13.25;nan
37694;BME280;23531;50.122;8.644;2023-04-24T01:21:59;99295.94;;;13.19;nan
37694;BME280;23531;50.122;8.644;2023-04-24T01:24:04;99282.03;;;13.10;nan
37694;BME280;23531;50.122;8.644;2023-04-24T01:26:06;99275.03;;;13.36;nan
37694;BME280;23531;50.122;8.644;2023-04-24T01:28:07;99278.63;;;13.42;nan
37694;BME280;23531;50.122;8.644;2023-04-24T01:30:09;99279.72;;;13.46;nan
37694;BME280;23531;50.122;8.644;2023-04-24T01:32:10;99280.28;;;13.21;nan
37694;BME280;23531;50.122;8.644;2023-04-24T01:34:12;99278.47;;;13.27;nan
37694;BME280;23531;50.122;8.644;2023-04-24T01:36:13;99273.09;;;13.05;nan
37694;BME280;23531;50.122;8.644;2023-04-24T01:38:15;99278.50;;;13.10;nan
37694;BME280;23531;50.122;8.644;2023-04-24T01:40:17;99276.34;;;13.07;nan
37694;BME280;23531;50.122;8.644;2023-04-24T01:42:18;99273.47;;;12.92;nan
37694;BME280;23531;50.122;8.644;2023-04-24T01:44:20;99283.19;;;12.93;nan
37694;BME280;23531;50.122;8.644;2023-04-24T01:46:21;99281.69;;;13.02;nan
37694;BME280;23531;50.122;8.644;2023-04-24T01:48:23;99289.44;;;12.98;nan
37694;BME280;23531;50.122;8.644;2023-04-24T01:50:24;99291.09;;;12.99;nan
37694;BME280;23531;50.122;8.644;2023-04-24T01:52:26;99295.06;;;12.92;nan
37694;BME280;23531;50.122;8.644;2023-04-24T01:54:28;99287.84;;;12.97;nan
37694;BME280;23531;50.122;8.644;2023-04-24T01:56:31;99287.31;;;13.00;nan
37694;BME280;23531;50.122;8.644;2023-04-24T01:58:34;99277.78;;;13.15;nan
37694;BME280;23531;50.122;8.644;2023-04-24T02:00:35;99279.91;;;13.13;nan
37694;BME280;23531;50.122;8.644;2023-04-24T14:25:45;99777.53;;;15.11;49.72
37694;BME280;23531;50.122;8.644;2023-04-24T14:27:50;99783.47;;;15.08;49.00
37694;BME280;23531;50.122;8.644;2023-04-24T14:29:52;99780.69;;;15.03;49.50
37694;BME280;23531;50.122;8.644;2023-04-24T14:31:53;99779.97;;;14.85;49.23
37694;BME280;23531;50.122;8.644;2023-04-24T14:33:55;99770.28;;;14.89;50.03
37694;BME280;23531;50.122;8.644;2023-04-24T14:35:57;99773.56;;;14.70;49.82
37694;BME280;23531;50.122;8.644;2023-04-24T14:37:58;99773.13;;;14.78;49.89
37694;BME280;23531;50.122;8.644;2023-04-24T14:40:00;99774.22;;;14.82;49.88
37694;BME280;23531;50.122;8.644;2023-04-24T14:42:02;99787.09;;;14.70;49.90
37694;BME280;23531;50.122;8.644;2023-04-24T14:44:04;99790.44;;;14.55;50.04
37694;BME280;23531;50.122;8.644;2023-04-24T14:46:05;99793.50;;;14.64;51.09
37694;BME280;23531;50.122;8.644;2023-04-24T14:48:07;99787.66;;;14.50;51.80
37694;BME280;23531;50.122;8.644;2023-04-24T14:50:09;99784.63;;;14.46;52.71
37694;BME280;23531;50.122;8.644;2023-04-24T14:52:10;99781.09;;;14.46;52.82
37694;BME280;23531;50.122;8.644;2023-04-24T14:54:12;99785.53;;;14.35;52.43
37694;BME280;23531;50.122;8.644;2023-04-24T14:56:14;99786.69;;;14.23;52.60
37694;BME280;23531;50.122;8.644;2023-04-24T14:58:16;99790.13;;;14.35;53.56
37694;BME280;23531;50.122;8.644;2023-04-24T15:00:18;99793.06;;;14.50;53.87
37694;BME280;23531;50.122;8.644;2023-04-24T15:02:20;99788.97;;;14.47;53.76
37694;BME280;23531;50.122;8.644;2023-04-24T15:04:21;99799.38;;;14.39;52.51
37694;BME280;23531;50.122;8.644;2023-04-24T15:06:23;99789.00;;;14.31;52.75
37694;BME280;23531;50.122;8.644;2023-04-24T15:08:24;99789.00;;;14.31;52.82
37694;BME280;23531;50.122;8.644;2023-04-24T15:10:26;99784.31;;;14.26;52.13
37694;BME280;23531;50.122;8.644;2023-04-24T15:12:29;99786.69;;;14.39;52.34
37694;BME280;23531;50.122;8.644;2023-04-24T15:14:31;99786.84;;;14.49;52.25
37694;BME280;23531;50.122;8.644;2023-04-24T15:16:33;99776.09;;;14.55;52.29
37694;BME280;23531;50.122;8.644;2023-04-24T15:18:34;99786.13;;;14.59;52.03
37694;BME280;23531;50.122;8.644;2023-04-24T15:20:35;99791.66;;;14.47;51.10
37694;BME280;23531;50.122;8.644;2023-04-24T15:22:38;99793.56;;;14.47;50.63
37694;BME280;23531;50.122;8.644;2023-04-24T15:24:40;99785.03;;;14.55;49.14
37694;BME280;23531;50.122;8.644;2023-04-24T15:26:41;99786.50;;;14.46;49.50
37694;BME280;23531;50.122;8.644;2023-04-24T15:28:42;99781.75;;;14.53;49.78
37694;BME280;23531;50.122;8.644;2023-04-24T15:30:45;99787.66;;;14.50;47.61
37694;BME280;23531;50.122;8.644;2023-04-24T15:32:46;99791.75;;;14.36;47.90
37694;BME280;23531;50.122;8.644;2023-04-24T15:34:47;99781.09;;;14.46;48.45
37694;BME280;23531;50.122;8.644;2023-04-24T15:36:49;99789.72;;;14.43;47.96
37694;BME280;23531;50.122;8.644;2023-04-24T15:38:50;99789.97;;;14.25;47.17
37694;BME280;23531;50.122;8.644;2023-04-24T15:40:51;99794.25;;;14.21;47.38
37694;BME280;23531;50.122;8.644;2023-04-24T15:42:52;99791.56;;;14.21;47.73
37694;BME280;23531;50.122;8.644;2023-04-24T15:44:53;99792.00;;;14.34;48.12
37694;BME280;23531;50.122;8.644;2023-04-24T15:46:56;99795.53;;;14.35;48.22
37694;BME280;23531;50.122;8.644;2023-04-24T15:49:00;99803.09;;;14.33;48.21
37694;BME280;23531;50.122;8.644;2023-04-24T15:51:01;99798.91;;;14.25;48.05
37694;BME280;23531;50.122;8.644;2023-04-24T15:53:02;99799.97;;;14.24;48.80
37694;BME280;23531;50.122;8.644;2023-04-24T15:55:04;99805.22;;;14.31;48.91
37694;BME280;23531;50.122;8.644;2023-04-24T15:57:05;99803.59;;;14.30;48.90
37694;BME280;23531;50.122;8.644;2023-04-24T15:59:07;99802.44;;;14.26;48.91
37694;BME280;23531;50.122;8.644;2023-04-24T16:01:08;99810.38;;;14.32;49.11
37694;BME280;23531;50.122;8.644;2023-04-24T16:03:11;99809.63;;;14.37;49.29
37694;BME280;23531;50.122;8.644;2023-04-24T16:05:12;99806.53;;;14.28;49.05
37694;BME280;23531;50.122;8.644;2023-04-24T16:07:13;99809.22;;;14.45;48.95
37694;BME280;23531;50.122;8.644;2023-04-24T16:09:17;99818.22;;;14.50;49.09
37694;BME280;23531;50.122;8.644;2023-04-24T16:11:18;99807.16;;;14.52;49.10
37694;BME280;23531;50.122;8.644;2023-04-24T16:13:19;99818.47;;;14.49;48.87
37694;BME280;23531;50.122;8.644;2023-04-24T16:15:20;99815.19;;;14.47;49.44
37694;BME280;23531;50.122;8.644;2023-04-24T16:17:22;99802.81;;;14.51;49.56
37694;BME280;23531;50.122;8.644;2023-04-24T16:19:24;99815.19;;;14.47;49.48
37694;BME280;23531;50.122;8.644;2023-04-24T16:21:26;99802.63;;;14.58;49.38
37694;BME280;23531;50.122;8.644;2023-04-24T16:23:27;99814.22;;;14.53;49.27
37694;BME280;23531;50.122;8.644;2023-04-24T16:25:28;99823.09;;;14.32;49.05
37694;BME280;23531;50.122;8.644;2023-04-24T16:27:30;99817.53;;;14.22;48.54
37694;BME280;23531;50.122;8.644;2023-04-24T16:29:31;99817.44;;;14.16;48.30
37694;BME280;23531;50.122;8.644;2023-04-24T16:31:32;99816.44;;;14.23;48.50
37694;BME280;23531;50.122;8.644;2023-04-24T16:33:34;99817.59;;;14.27;48.56
37694;BME280;23531;50.122;8.644;2023-04-24T16:35:36;99819.47;;;14.26;49.02
37694;BME280;23531;50.122;8.644;2023-04-24T16:37:38;99815.22;;;14.30;48.91
37694;BME280;23531;50.122;8.644;2023-04-24T16:39:39;99817.59;;;14.27;48.91
37694;BME280;23531;50.122;8.644;2023-04-24T16:41:43;99822.56;;;14.35;48.95
37694;BME280;23531;50.122;8.644;2023-04-24T16:43:45;99818.78;;;14.36;48.94
37694;BME280;23531;50.122;8.644;2023-04-24T16:45:46;99824.22;;;14.36;48.96
37694;BME280;23531;50.122;8.644;2023-04-24T16:47:47;99821.13;;;14.27;48.37
37694;BME280;23531;50.122;8.644;2023-04-24T16:49:49;99825.22;;;14.30;48.78
37694;BME280;23531;50.122;8.644;2023-04-24T16:51:51;99822.38;;;14.20;48.53
37694;BME280;23531;50.122;8.644;2023-04-24T16:53:53;99829.66;;;14.19;48.47
37694;BME280;23531;50.122;8.644;2023-04-24T16:55:54;99813.19;;;14.21;48.49
37694;BME280;23531;50.122;8.644;2023-04-24T16:57:55;99814.25;;;14.20;48.22
37694;BME280;23531;50.122;8.644;2023-04-24T16:59:57;99815.63;;;14.22;48.56
37694;BME280;23531;50.122;8.644;2023-04-24T17:01:58;99822.13;;;14.21;48.70
37694;BME280;23531;50.122;8.644;2023-04-24T17:03:59;99821.19;;;14.32;48.60
37694;BME280;23531;50.122;8.644;2023-04-24T17:06:01;99819.56;;;14.31;48.27
37694;BME280;23531;50.122;8.644;2023-04-24T17:08:03;99827.97;;;14.35;48.27
37694;BME280;23531;50.122;8.644;2023-04-24T17:10:05;99823.25;;;14.42;48.43
37694;BME280;23531;50.122;8.644;2023-04-24T17:12:08;99823.25;;;14.42;48.08
37694;BME280;23531;50.122;8.644;2023-04-24T17:14:10;99818.50;;;14.32;47.56
37694;BME280;23531;50.122;8.644;2023-04-24T17:16:11;99830.81;;;14.40;48.21
37694;BME280;23531;50.122;8.644;2023-04-24T17:18:12;99820.69;;;14.35;48.12
37694;BME280;23531;50.122;8.644;2023-04-24T17:20:13;99829.13;;;14.22;47.79
37694;BME280;23531;50.122;8.644;2023-04-24T17:22:15;99825.69;;;14.27;48.31
37694;BME280;23531;50.122;8.644;2023-04-24T17:24:17;99823.63;;;14.34;48.20
37694;BME280;23531;50.122;8.644;2023-04-24T17:26:18;99830.19;;;14.38;48.19
37694;BME280;23531;50.122;8.644;2023-04-24T17:28:23;99824.00;;;14.21;48.09
37694;BME280;23531;50.122;8.644;2023-04-24T17:30:25;99825.75;;;14.10;48.04
37694;BME280;23531;50.122;8.644;2023-04-24T17:32:26;99832.69;;;14.06;48.17
37694;BME280;23531;50.122;8.644;2023-04-24T17:34:27;99829.25;;;14.10;48.05
37694;BME280;23531;50.122;8.644;2023-04-24T17:36:28;99834.91;;;14.09;48.31
37694;BME280;23531;50.122;8.644;2023-04-24T17:38:30;99831.44;;;14.13;48.48
37694;BME280;23531;50.122;8.644;2023-04-24T17:40:33;99827.19;;;14.17;48.52
37694;BME280;23531;50.122;8.644;2023-04-24T17:42:36;99834.25;;;14.18;48.46
37694;BME280;23531;50.122;8.644;2023-04-24T17:44:40;99826.53;;;14.27;48.97
37694;BME280;23531;50.122;8.644;2023-04-24T17:46:41;99826.78;;;14.26;48.70
37694;BME280;23531;50.122;8.644;2023-04-24T17:48:42;99822.75;;;14.28;48.86
37694;BME280;23531;50.122;8.644;2023-04-24T17:50:44;99823.34;;;14.30;48.82
37694;BME280;23531;50.122;8.644;2023-04-24T17:52:45;99822.84;;;14.33;49.03
37694;BME280;23531;50.122;8.644;2023-04-24T17:54:47;99827.69;;;14.31;48.57
37694;BME280;23531;50.122;8.644;2023-04-24T17:56:50;99831.75;;;14.34;48.94
37694;BME280;23531;50.122;8.644;2023-04-24T17:58:51;99831.44;;;14.30;48.69
37694;BME280;23531;50.122;8.644;2023-04-24T18:00:53;99832.19;;;14.26;48.95
37694;BME280;23531;50.122;8.644;2023-04-24T18:02:54;99830.47;;;14.20;48.80
37694;BME280;23531;50.122;8.644;2023-04-24T18:04:59;99824.88;;;14.26;48.67
37694;BME280;23531;50.122;8.644;2023-04-24T18:07:01;99842.25;;;14.30;48.81
37694;BME280;23531;50.122;8.644;2023-04-24T18:09:02;99853.19;;;14.18;49.01
37694;BME280;23531;50.122;8.644;2023-04-24T18:11:03;99846.72;;;13.86;50.90
37694;BME280;23531;50.122;8.644;2023-04-24T18:13:06;99846.47;;;13.88;51.25
37694;BME280;23531;50.122;8.644;2023-04-24T18:15:09;99851.78;;;13.82;51.75
37694;BME280;23531;50.122;8.644;2023-04-24T18:17:10;99859.13;;;13.70;52.58
37694;BME280;23531;50.122;8.644;2023-04-24T18:19:11;99849.16;;;13.71;52.74
37694;BME280;23531;50.122;8.644;2023-04-24T18:21:13;99860.19;;;13.53;53.55
37694;BME280;23531;50.122;8.644;2023-04-24T18:23:14;99860.59;;;13.61;53.53
37694;BME280;23531;50.122;8.644;2023-04-24T18:25:15;99862.50;;;13.61;53.96
37694;BME280;23531;50.122;8.644;2023-04-24T18:27:20;99865.59;;;13.53;54.46
37694;BME280;23531;50.122;8.644;2023-04-24T18:29:25;99872.09;;;13.40;54.86
37694;BME280;23531;50.122;8.644;2023-04-24T18:31:26;99868.97;;;13.31;55.02
37694;BME280;23531;50.122;8.644;2023-04-24T18:33:27;99870.22;;;13.40;55.48
37694;BME280;23531;50.122;8.644;2023-04-24T18:35:29;99876.03;;;13.21;56.47
37694;BME280;23531;50.122;8.644;2023-04-24T18:37:30;99868.25;;;12.96;57.40
37694;BME280;23531;50.122;8.644;2023-04-24T18:39:32;99873.63;;;13.07;57.40
37694;BME280;23531;50.122;8.644;2023-04-24T18:41:33;99882.41;;;13.03;58.40
37694;BME280;23531;50.122;8.644;2023-04-24T18:43:34;99873.09;;;12.82;59.40
37694;BME280;23531;50.122;8.644;2023-04-24T18:45:37;99878.00;;;12.85;59.20
37694;BME280;23531;50.122;8.644;2023-04-24T18:47:38;99882.88;;;13.00;58.96
37694;BME280;23531;50.122;8.644;2023-04-24T18:49:40;99879.50;;;12.93;58.76
37694;BME280;23531;50.122;8.644;2023-04-24T18:51:41;99890.53;;;12.91;59.53
37694;BME280;23531;50.122;8.644;2023-04-24T18:53:42;99894.75;;;12.87;59.57
37694;BME280;23531;50.122;8.644;2023-04-24T18:55:43;99896.78;;;12.68;60.62
37694;BME280;23531;50.122;8.644;2023-04-24T18:57:45;99908.75;;;12.72;60.95
37694;BME280;23531;50.122;8.644;2023-04-24T18:59:46;99905.94;;;12.67;61.27
37694;BME280;23531;50.122;8.644;2023-04-24T19:01:49;99909.06;;;12.88;61.49
37694;BME280;23531;50.122;8.644;2023-04-24T19:03:50;99909.06;;;12.88;61.49
37694;BME280;23531;50.122;8.644;2023-04-24T19:05:51;99906.16;;;12.66;61.71
37694;BME280;23531;50.122;8.644;2023-04-24T19:07:52;99913.44;;;12.65;63.01
37694;BME280;23531;50.122;8.644;2023-04-24T19:09:54;99912.59;;;12.77;63.58
37694;BME280;23531;50.122;8.644;2023-04-24T19:11:55;99929.84;;;12.76;64.75
37694;BME280;23531;50.122;8.644;2023-04-24T19:13:56;99918.28;;;12.63;66.04
37694;BME280;23531;50.122;8.644;2023-04-24T19:16:02;99930.22;;;12.44;67.41
37694;BME280;23531;50.122;8.644;2023-04-24T19:18:04;99938.50;;;12.19;67.93
37694;BME280;23531;50.122;8.644;2023-04-24T19:20:06;99929.25;;;12.15;68.23
37694;BME280;23531;50.122;8.644;2023-04-24T19:22:07;99930.53;;;12.01;68.78
37694;BME280;23531;50.122;8.644;2023-04-24T19:24:08;99937.56;;;12.02;69.00
37694;BME280;23531;50.122;8.644;2023-04-24T19:26:10;99926.09;;;12.07;69.63
37694;BME280;23531;50.122;8.644;2023-04-24T19:28:13;99931.72;;;12.17;68.65
37694;BME280;23531;50.122;8.644;2023-04-24T19:30:14;99933.09;;;12.08;69.26
37694;BME280;23531;50.122;8.644;2023-04-24T19:32:15;99927.16;;;12.06;69.82
37694;BME280;23531;50.122;8.644;2023-04-24T19:34:18;99929.34;;;11.97;69.41
37694;BME280;23531;50.122;8.644;2023-04-24T19:36:19;99935.09;;;12.00;70.51
37694;BME280;23531;50.122;8.644;2023-04-24T19:38:21;99936.84;;;11.95;69.91
37694;BME280;23531;50.122;8.644;2023-04-24T19:40:22;99935.41;;;11.81;71.26
37694;BME280;23531;50.122;8.644;2023-04-24T19:42:23;99928.19;;;11.75;71.47
37694;BME280;23531;50.122;8.644;2023-04-24T19:44:24;99935.28;;;11.87;70.78
37694;BME280;23531;50.122;8.644;2023-04-24T19:46:26;99929.44;;;11.90;71.00
37694;BME280;23531;50.122;8.644;2023-04-24T19:48:27;99931.19;;;11.85;71.53
37694;BME280;23531;50.122;8.644;2023-04-24T19:50:31;99930.94;;;11.86;71.51
37694;BME280;23531;50.122;8.644;2023-04-24T19:52:33;99937.66;;;11.95;71.38
37694;BME280;23531;50.122;8.644;2023-04-24T19:54:35;99944.41;;;11.86;72.16
37694;BME280;23531;50.122;8.644;2023-04-24T19:56:36;99951.09;;;11.84;71.74
37694;BME280;23531;50.122;8.644;2023-04-24T19:58:37;99948.16;;;11.85;72.33
37694;BME280;23531;50.122;8.644;2023-04-24T20:00:38;99947.25;;;11.91;72.80
37694;BME280;23531;50.122;8.644;2023-04-24T20:02:40;99956.13;;;11.80;73.20
37694;BME280;23531;50.122;8.644;2023-04-24T20:04:42;99955.34;;;11.91;72.71
37694;BME280;23531;50.122;8.644;2023-04-24T20:06:44;99952.97;;;11.83;72.68
37694;BME280;23531;50.122;8.644;2023-04-24T20:08:46;99952.91;;;12.02;72.54
37694;BME280;23531;50.122;8.644;2023-04-24T20:10:47;99954.50;;;11.91;72.31
37694;BME280;23531;50.122;8.644;2023-04-24T20:12:48;99949.50;;;11.94;72.53
37694;BME280;23531;50.122;8.644;2023-04-24T20:14:49;99948.09;;;12.04;71.36
37694;BME280;23531;50.122;8.644;2023-04-24T20:16:51;99948.06;;;11.92;71.80
37694;BME280;23531;50.122;8.644;2023-04-24T20:18:53;99946.66;;;11.89;71.92
37694;BME280;23531;50.122;8.644;2023-04-24T20:20:54;99947.72;;;11.88;71.98
37694;BME280;23531;50.122;8.644;2023-04-24T20:23:00;99946.47;;;11.73;72.32
37694;BME280;23531;50.122;8.644;2023-04-24T20:25:01;99942.50;;;11.75;72.67
37694;BME280;23531;50.122;8.644;2023-04-24T20:27:03;99945.44;;;11.74;73.15
37694;BME280;23531;50.122;8.644;2023-04-24T20:29:04;99945.59;;;11.90;71.89
37694;BME280;23531;50.122;8.644;2023-04-24T20:31:07;99945.16;;;11.93;71.32
37694;BME280;23531;50.122;8.644;2023-04-24T20:33:08;99940.81;;;11.92;70.36
37694;BME280;23531;50.122;8.644;2023-04-24T20:35:10;99941.75;;;11.98;70.30
37694;BME280;23531;50.122;8.644;2023-04-24T20:37:11;99932.75;;;11.92;69.99
37694;BME280;23531;50.122;8.644;2023-04-24T20:39:14;99945.25;;;11.87;70.82
37694;BME280;23531;50.122;8.644;2023-04-24T20:41:15;99939.78;;;11.93;70.72
37694;BME280;23531;50.122;8.644;2023-04-24T20:43:18;99938.00;;;11.99;70.81
37694;BME280;23531;50.122;8.644;2023-04-24T20:45:20;99937.06;;;11.93;71.02
37694;BME280;23531;50.122;8.644;2023-04-24T20:47:23;99931.66;;;11.82;71.46
37694;BME280;23531;50.122;8.644;2023-04-24T20:49:24;99930.53;;;11.71;71.81
37694;BME280;23531;50.122;8.644;2023-04-24T20:51:25;99934.84;;;11.90;71.74
37694;BME280;23531;50.122;8.644;2023-04-24T20:53:27;99931.28;;;11.78;71.80
37694;BME280;23531;50.122;8.644;2023-04-24T20:55:30;99938.69;;;11.83;71.56
37694;BME280;23531;50.122;8.644;2023-04-24T20:57:31;99930.94;;;11.86;71.40
37694;BME280;23531;50.122;8.644;2023-04-24T20:59:32;99925.22;;;11.64;71.80
37694;BME280;23531;50.122;8.644;2023-04-24T21:01:33;99925.22;;;11.64;72.28
37694;BME280;23531;50.122;8.644;2023-04-24T21:03:35;99928.69;;;11.53;73.10
37694;BME280;23531;50.122;8.644;2023-04-24T21:05:36;99927.47;;;11.68;73.02
37694;BME280;23531;50.122;8.644;2023-04-24T21:07:37;99930.47;;;11.78;72.90
37694;BME280;23531;50.122;8.644;2023-04-24T21:09:38;99931.91;;;11.62;73.31
37694;BME280;23531;50.122;8.644;2023-04-24T21:11:42;99929.44;;;11.60;73.40
37694;BME280;23531;50.122;8.644;2023-04-24T21:13:43;99928.66;;;11.72;73.74
37694;BME280;23531;50.122;8.644;2023-04-24T21:15:44;99924.50;;;11.57;74.05
37694;BME280;23531;50.122;8.644;2023-04-24T21:17:45;99925.78;;;11.55;74.31
37694;BME280;23531;50.122;8.644;2023-04-24T21:19:47;99917.69;;;11.55;73.68
37694;BME280;23531;50.122;8.644;2023-04-24T21:21:48;99920.06;;;11.63;73.96
37694;BME280;23531;50.122;8.644;2023-04-24T21:23:49;99917.91;;;11.72;74.35
37694;BME280;23531;50.122;8.644;2023-04-24T21:25:51;99916.78;;;11.79;73.64
37694;BME280;23531;50.122;8.644;2023-04-24T21:27:53;99908.41;;;11.69;73.99
37694;BME280;23531;50.122;8.644;2023-04-24T21:29:54;99914.13;;;11.61;74.04
37694;BME280;23531;50.122;8.644;2023-04-24T21:31:56;99912.13;;;11.68;74.83
37694;BME280;23531;50.122;8.644;2023-04-24T21:33:57;99917.81;;;11.78;74.22
37694;BME280;23531;50.122;8.644;2023-04-24T21:35:58;99914.06;;;11.79;73.75
37694;BME280;23531;50.122;8.644;2023-04-24T21:38:00;99912.81;;;11.93;73.50
37694;BME280;23531;50.122;8.644;2023-04-24T21:40:01;99916.25;;;12.12;73.02
37694;BME280;23531;50.122;8.644;2023-04-24T21:42:03;99907.91;;;11.90;72.68
37694;BME280;23531;50.122;8.644;2023-04-24T21:44:06;99917.38;;;11.81;73.06
37694;BME280;23531;50.122;8.644;2023-04-24T21:46:07;99918.03;;;11.77;73.48
37694;BME280;23531;50.122;8.644;2023-04-24T21:48:09;99914.94;;;11.61;73.99
37694;BME280;23531;50.122;8.644;2023-04-24T21:50:11;99910.72;;;11.36;75.45
37694;BME280;23531;50.122;8.644;2023-04-24T21:52:12;99909.91;;;11.35;75.76
37694;BME280;23531;50.122;8.644;2023-04-24T21:54:13;99904.66;;;11.40;75.24
37694;BME280;23531;50.122;8.644;2023-04-24T21:56:14;99905.50;;;11.22;76.04
37694;BME280;23531;50.122;8.644;2023-04-24T21:58:16;99906.88;;;11.43;75.82
37694;BME280;23531;50.122;8.644;2023-04-24T22:00:19;99904.69;;;11.22;76.67
37694;BME280;23531;50.122;8.644;2023-04-24T22:02:20;99908.47;;;11.33;76.40
37694;BME280;23531;50.122;8.644;2023-04-24T22:04:21;99910.28;;;11.39;75.84
37694;BME280;23531;50.122;8.644;2023-04-24T22:06:22;99903.88;;;11.21;76.36
37694;BME280;23531;50.122;8.644;2023-04-24T22:08:24;99905.06;;;11.25;76.64
37694;BME280;23531;50.122;8.644;2023-04-24T22:10:25;99901.38;;;11.38;76.86
37694;BME280;23531;50.122;8.644;2023-04-24T22:12:27;99900.84;;;11.48;76.44
37694;BME280;23531;50.122;8.644;2023-04-24T22:14:28;99896.22;;;11.37;76.08
37694;BME280;23531;50.122;8.644;2023-04-24T22:16:31;99902.31;;;11.14;76.49
37694;BME280;23531;50.122;8.644;2023-04-24T22:18:33;99903.13;;;11.14;76.93
37694;BME280;23531;50.122;8.644;2023-04-24T22:20:34;99895.19;;;11.19;77.69
37694;BME280;23531;50.122;8.644;2023-04-24T22:22:35;99896.22;;;11.37;77.11
37694;BME280;23531;50.122;8.644;2023-04-24T22:24:36;99893.19;;;11.45;76.89
37694;BME280;23531;50.122;8.644;2023-04-24T22:26:38;99897.53;;;11.46;76.11
37694;BME280;23531;50.122;8.644;2023-04-24T22:28:39;99902.06;;;11.34;76.40
37694;BME280;23531;50.122;8.644;2023-04-24T22:30:40;99901.84;;;11.35;76.97
37694;BME280;23531;50.122;8.644;2023-04-24T22:32:43;99900.41;;;11.33;76.38
37694;BME280;23531;50.122;8.644;2023-04-24T22:34:44;99904.53;;;11.35;76.92
37694;BME280;23531;50.122;8.644;2023-04-24T22:36:45;99899.50;;;11.39;76.38
37694;BME280;23531;50.122;8.644;2023-04-24T22:38:46;99902.44;;;11.37;76.37
37694;BME280;23531;50.122;8.644;2023-04-24T22:40:48;99907.44;;;11.34;76.95
37694;BME280;23531;50.122;8.644;2023-04-24T22:42:49;99898.53;;;11.33;76.68
37694;BME280;23531;50.122;8.644;2023-04-24T22:44:51;99901.22;;;11.33;77.12
37694;BME280;23531;50.122;8.644;2023-04-24T22:46:53;99904.63;;;11.28;76.92
37694;BME280;23531;50.122;8.644;2023-04-24T22:48:55;99893.47;;;11.25;77.57
37694;BME280;23531;50.122;8.644;2023-04-24T22:50:57;99897.88;;;11.19;77.80
37694;BME280;23531;50.122;8.644;2023-04-24T22:52:58;99897.28;;;11.17;78.34
37694;BME280;23531;50.122;8.644;2023-04-24T22:55:00;99894.19;;;11.32;78.93
37694;BME280;23531;50.122;8.644;2023-04-24T22:57:01;99895.56;;;11.23;78.84
37694;BME280;23531;50.122;8.644;2023-04-24T22:59:03;99890.69;;;11.32;78.55
37694;BME280;23531;50.122;8.644;2023-04-24T23:01:05;99889.19;;;11.36;78.34
37694;BME280;23531;50.122;8.644;2023-04-24T23:03:06;99894.59;;;11.17;79.02
37694;BME280;23531;50.122;8.644;2023-04-24T23:05:09;99899.09;;;11.23;79.06
37694;BME280;23531;50.122;8.644;2023-04-24T23:07:10;99898.47;;;11.21;79.07
37694;BME280;23531;50.122;8.644;2023-04-24T23:09:12;99901.06;;;11.16;79.71
37694;BME280;23531;50.122;8.644;2023-04-24T23:11:13;99908.78;;;10.95;80.15